Financial Plaza, Florida
Current Conditions -  °F | °C
As of 3:53 AM on Wednesday 26 Nov 2014 (Local Time) from KFLL Reporting Station
Broken Clouds Broken Clouds  
Wind Chill: 80°   Ceiling: 2000
Heat Index: 85°   Visibility: 10mi
Dew Point: 75°   Wind: 10mph
Humidity: 85%   Direction: 200°SSW
Pressure: 29.92"   Gusts: NA
Location:  26.1179°N, 80.1441°W
Report Text: KFLL 260853Z 20009KT 10SM SCT012 BKN020 27/24 A2992 RMK AO2 SLP130 60000 T02670239 58000
Loading
Personal Weather Stations






























Interactive Weather Map New forecast layout! Learn more

10-Day Weather Forecast

Advertisements
Track Severe Weather on mobile